Time;durP1;ratioP1;P1;durP2;ratioP2;P2;SDS_P1;SDS_P2;PMS_P1;PMS_P2;Temp;Humidity;BMP_temperature;BMP_pressure;BME280_temperature;BME280_humidity;BME280_pressure;Samples;Min_cycle;Max_cycle;Signal;HPM_P1;HPM_P2
2022/09/11 00:01:17;;;;;;;1.77;1.40;;;15.80;98.00;;;;;;4995711;28;20455;-71
2022/09/11 00:03:48;;;;;;;1.50;1.30;;;15.80;98.00;;;;;;5013045;28;20479;-71
2022/09/11 00:06:19;;;;;;;1.40;1.33;;;15.80;98.00;;;;;;5012772;28;20528;-71
2022/09/11 00:08:48;;;;;;;1.20;1.13;;;15.80;98.00;;;;;;5012604;28;20550;-71
2022/09/11 00:11:17;;;;;;;1.40;1.17;;;15.80;98.00;;;;;;4995299;28;20455;-71
2022/09/11 00:13:46;;;;;;;1.30;1.30;;;15.80;98.00;;;;;;5013808;28;20525;-72
2022/09/11 00:16:20;;;;;;;1.30;1.20;;;15.80;98.00;;;;;;5013956;28;20455;-71
2022/09/11 00:18:47;;;;;;;1.20;1.10;;;15.80;98.00;;;;;;5013238;28;20459;-71
2022/09/11 00:21:17;;;;;;;1.43;1.07;;;15.80;98.00;;;;;;5012498;28;20521;-71
2022/09/11 00:23:44;;;;;;;1.40;1.27;;;15.80;98.00;;;;;;5013420;28;20463;-71
2022/09/11 00:26:12;;;;;;;1.80;1.30;;;15.90;98.00;;;;;;5013400;28;20460;-71
2022/09/11 00:28:39;;;;;;;1.43;1.33;;;15.80;98.00;;;;;;5012776;28;20502;-71
2022/09/11 00:31:11;;;;;;;1.60;1.30;;;15.90;98.00;;;;;;5012321;28;20538;-71
2022/09/11 00:33:39;;;;;;;1.67;1.40;;;15.90;98.00;;;;;;5012300;28;20523;-71
2022/09/11 00:36:09;;;;;;;2.10;1.37;;;15.80;98.00;;;;;;5012379;28;20455;-71
2022/09/11 00:38:46;;;;;;;1.87;1.47;;;15.90;98.00;;;;;;5012175;28;20462;-71
2022/09/11 00:41:16;;;;;;;1.37;1.17;;;15.80;98.00;;;;;;5012114;28;20451;-71
2022/09/11 00:43:59;;;;;;;1.30;1.20;;;15.80;98.00;;;;;;5012532;28;20463;-71
2022/09/11 00:46:34;;;;;;;1.70;1.33;;;15.70;98.00;;;;;;5012148;28;20896;-71
2022/09/11 00:49:06;;;;;;;2.27;1.60;;;15.70;98.00;;;;;;5011993;28;20587;-71
2022/09/11 00:51:36;;;;;;;2.67;1.37;;;15.70;98.00;;;;;;5012166;28;20558;-71
2022/09/11 00:54:05;;;;;;;1.57;1.50;;;15.70;98.00;;;;;;5012251;28;20456;-71
2022/09/11 00:56:36;;;;;;;1.60;1.33;;;15.70;98.00;;;;;;5012175;28;20465;-71
2022/09/11 00:59:04;;;;;;;1.50;1.30;;;15.80;98.00;;;;;;5012287;28;20855;-71
2022/09/11 01:01:32;;;;;;;1.30;1.20;;;15.80;98.00;;;;;;5011924;28;20961;-71
2022/09/11 01:04:02;;;;;;;1.40;1.30;;;15.80;98.00;;;;;;5012177;28;20489;-71
2022/09/11 01:06:30;;;;;;;2.03;1.33;;;15.80;98.00;;;;;;5012080;28;20462;-71
2022/09/11 01:08:58;;;;;;;1.60;1.50;;;15.70;98.00;;;;;;5011697;28;20502;-71
2022/09/11 01:11:43;;;;;;;1.90;1.30;;;15.80;98.00;;;;;;5011967;28;20455;-71
2022/09/11 01:14:22;;;;;;;1.80;1.20;;;15.80;98.00;;;;;;5012520;28;20470;-71
2022/09/11 01:16:55;;;;;;;1.80;1.40;;;15.90;98.00;;;;;;5012270;28;20462;-71
2022/09/11 01:19:40;;;;;;;1.30;1.17;;;15.90;98.00;;;;;;5012139;28;20483;-71
2022/09/11 01:22:25;;;;;;;1.50;1.30;;;15.90;98.00;;;;;;4995929;28;20456;-71
2022/09/11 01:25:00;;;;;;;1.57;1.27;;;15.80;98.00;;;;;;5011637;28;20466;-71
2022/09/11 01:27:44;;;;;;;6.10;1.20;;;15.80;98.00;;;;;;5011655;28;20549;-71
2022/09/11 01:30:13;;;;;;;1.43;1.27;;;15.80;98.00;;;;;;4993833;28;20464;-71
2022/09/11 01:33:11;;;;;;;1.20;1.10;;;15.80;98.00;;;;;;5011396;28;20521;-71
2022/09/11 01:35:51;;;;;;;1.20;1.10;;;15.80;98.00;;;;;;5004737;28;20567;-72
2022/09/11 01:38:26;;;;;;;1.20;1.20;;;15.80;98.00;;;;;;5011360;28;20462;-71
2022/09/11 01:40:55;;;;;;;1.63;1.27;;;15.80;98.00;;;;;;5011321;28;20461;-72
2022/09/11 01:43:33;;;;;;;1.40;1.30;;;15.80;98.00;;;;;;5011378;28;20455;-71
2022/09/11 01:46:05;;;;;;;1.37;1.10;;;15.80;98.00;;;;;;5011303;28;20473;-72
2022/09/11 01:48:37;;;;;;;1.50;1.33;;;16.00;98.00;;;;;;5011298;28;20490;-71
2022/09/11 01:51:06;;;;;;;1.40;1.27;;;16.00;98.00;;;;;;5011276;28;20506;-71
2022/09/11 01:53:37;;;;;;;2.27;1.23;;;16.00;98.00;;;;;;5011402;28;20467;-71
2022/09/11 01:56:12;;;;;;;1.60;1.50;;;16.10;98.00;;;;;;5011392;28;20479;-71
2022/09/11 01:58:42;;;;;;;1.40;1.23;;;16.20;98.00;;;;;;5011648;28;20467;-71
2022/09/11 02:01:17;;;;;;;1.70;1.23;;;16.10;98.00;;;;;;5011219;28;20491;-71
2022/09/11 02:03:49;;;;;;;1.30;1.10;;;16.10;98.00;;;;;;5011244;28;20467;-71
2022/09/11 02:06:23;;;;;;;1.93;1.50;;;16.20;98.00;;;;;;5011170;28;20459;-71
2022/09/11 02:08:53;;;;;;;1.60;1.30;;;16.00;98.00;;;;;;5010983;28;20533;-71
2022/09/11 02:11:21;;;;;;;1.30;1.20;;;16.00;98.00;;;;;;5011100;28;20451;-71
2022/09/11 02:14:00;;;;;;;1.40;1.30;;;16.10;98.00;;;;;;5011245;28;20995;-71
2022/09/11 02:16:39;;;;;;;1.37;1.30;;;16.20;98.00;;;;;;5011013;28;20466;-71
2022/09/11 02:19:09;;;;;;;1.60;1.30;;;16.10;98.00;;;;;;5011070;28;20752;-71
2022/09/11 02:21:36;;;;;;;1.27;1.20;;;16.00;98.00;;;;;;5010766;28;20887;-71
2022/09/11 02:24:05;;;;;;;1.50;1.40;;;16.00;98.00;;;;;;5010950;28;20459;-71
2022/09/11 02:26:37;;;;;;;1.70;1.40;;;16.00;98.00;;;;;;5010928;28;20451;-71
2022/09/11 02:29:07;;;;;;;2.47;1.47;;;16.00;98.00;;;;;;5010841;28;20570;-71
2022/09/11 02:31:36;;;;;;;1.60;1.33;;;16.00;98.00;;;;;;5010916;28;20501;-71
2022/09/11 02:34:03;;;;;;;2.23;1.60;;;16.00;98.00;;;;;;5010967;28;20511;-71
2022/09/11 02:36:58;;;;;;;1.40;1.23;;;16.00;98.00;;;;;;5010770;28;20458;-71
2022/09/11 02:39:37;;;;;;;2.23;1.60;;;15.90;98.00;;;;;;5011019;28;20460;-71
2022/09/11 02:42:17;;;;;;;3.40;1.60;;;15.90;98.00;;;;;;5010834;28;20463;-72
2022/09/11 02:44:54;;;;;;;2.33;1.63;;;16.00;98.00;;;;;;5010925;28;20489;-71
2022/09/11 02:47:32;;;;;;;1.70;1.20;;;16.10;98.00;;;;;;5012142;28;20542;-71
2022/09/11 02:50:08;;;;;;;8.87;1.80;;;16.20;98.00;;;;;;4996728;28;20495;-71
2022/09/11 02:52:47;;;;;;;1.50;1.30;;;16.30;98.00;;;;;;4997684;28;20830;-71
2022/09/11 02:55:21;;;;;;;1.70;1.40;;;16.30;98.00;;;;;;5014429;28;20550;-71
2022/09/11 02:57:55;;;;;;;2.80;1.53;;;16.20;98.00;;;;;;5014382;28;20561;-72
2022/09/11 03:00:23;;;;;;;1.83;1.30;;;16.10;98.00;;;;;;5014014;28;20462;-71
2022/09/11 03:02:53;;;;;;;1.80;1.40;;;16.20;98.00;;;;;;5014124;28;20806;-71
2022/09/11 03:05:22;;;;;;;1.80;1.37;;;16.00;98.00;;;;;;5013786;28;20455;-71
2022/09/11 03:07:49;;;;;;;1.40;1.33;;;16.10;98.00;;;;;;5013656;28;20459;-71
2022/09/11 03:10:16;;;;;;;1.97;1.47;;;16.20;98.00;;;;;;4996382;28;21028;-71
2022/09/11 03:12:43;;;;;;;2.37;1.50;;;16.30;98.00;;;;;;5013839;28;20487;-71
2022/09/11 03:15:11;;;;;;;1.40;1.30;;;16.30;98.00;;;;;;4996446;28;20945;-71
2022/09/11 03:17:40;;;;;;;1.87;1.60;;;16.40;98.00;;;;;;5013918;28;20460;-71
2022/09/11 03:20:08;;;;;;;1.30;1.20;;;16.40;98.00;;;;;;5013490;28;20465;-71
2022/09/11 03:22:35;;;;;;;1.40;1.30;;;16.40;98.00;;;;;;5013574;28;20462;-71
2022/09/11 03:25:03;;;;;;;1.90;1.50;;;16.40;98.00;;;;;;5013399;28;20520;-71
2022/09/11 03:27:30;;;;;;;2.37;1.43;;;16.20;98.00;;;;;;5013446;28;20455;-71
2022/09/11 03:29:57;;;;;;;1.97;1.50;;;16.20;98.00;;;;;;5013543;28;20519;-72
2022/09/11 03:32:25;;;;;;;2.20;1.50;;;16.20;98.00;;;;;;5013454;28;20456;-71
2022/09/11 03:34:53;;;;;;;1.60;1.50;;;16.20;98.00;;;;;;4996093;28;20474;-71
2022/09/11 03:37:20;;;;;;;2.20;1.57;;;16.20;98.00;;;;;;5013344;28;20459;-71
2022/09/11 03:39:48;;;;;;;2.13;1.50;;;16.10;98.00;;;;;;5013243;28;20459;-71
2022/09/11 03:42:16;;;;;;;1.57;1.43;;;16.10;98.00;;;;;;4995926;28;20483;-71
2022/09/11 03:44:44;;;;;;;1.93;1.40;;;16.10;98.00;;;;;;4996013;28;20463;-71
2022/09/11 03:47:11;;;;;;;2.67;1.80;;;16.20;98.00;;;;;;4995863;28;20463;-71
2022/09/11 03:49:38;;;;;;;2.30;1.40;;;16.30;98.00;;;;;;4996168;28;20519;-71
2022/09/11 03:52:07;;;;;;;1.40;1.30;;;16.30;98.00;;;;;;5013067;28;20456;-71
2022/09/11 03:54:34;;;;;;;2.03;1.50;;;16.40;98.00;;;;;;5013444;28;20462;-71
2022/09/11 03:57:01;;;;;;;1.97;1.60;;;16.50;98.00;;;;;;5013163;28;20477;-71
2022/09/11 03:59:28;;;;;;;1.90;1.57;;;16.30;98.00;;;;;;5012566;28;20467;-71
2022/09/11 04:01:55;;;;;;;1.80;1.57;;;16.30;98.00;;;;;;5012838;28;20459;-71
2022/09/11 04:04:22;;;;;;;1.93;1.53;;;16.40;98.00;;;;;;5012907;28;20841;-71
2022/09/11 04:06:49;;;;;;;1.67;1.37;;;16.40;98.00;;;;;;5012831;28;20460;-71
2022/09/11 04:09:18;;;;;;;2.90;1.67;;;16.30;98.00;;;;;;5012625;28;20491;-71
2022/09/11 04:11:45;;;;;;;2.47;1.60;;;16.40;98.00;;;;;;5012726;28;20463;-71
2022/09/11 04:14:13;;;;;;;1.37;1.30;;;16.50;98.00;;;;;;5012580;28;20457;-71
2022/09/11 04:16:40;;;;;;;3.53;1.60;;;16.40;98.00;;;;;;5012753;28;20546;-71
2022/09/11 04:19:07;;;;;;;2.23;1.67;;;16.50;98.00;;;;;;4995084;28;20463;-71
2022/09/11 04:21:34;;;;;;;2.00;1.37;;;16.50;98.00;;;;;;5012553;28;20873;-71
2022/09/11 04:24:02;;;;;;;1.50;1.40;;;16.50;98.00;;;;;;5012735;28;20460;-71
2022/09/11 04:26:32;;;;;;;2.23;1.70;;;16.50;98.00;;;;;;5012392;28;20942;-71
2022/09/11 04:29:00;;;;;;;2.43;1.67;;;16.60;98.00;;;;;;5012311;28;20897;-71
2022/09/11 04:31:27;;;;;;;1.43;1.30;;;16.70;98.00;;;;;;5012470;28;20482;-71
2022/09/11 04:33:55;;;;;;;1.60;1.43;;;16.60;98.00;;;;;;5012334;28;20467;-71
2022/09/11 04:36:24;;;;;;;1.80;1.30;;;16.60;98.00;;;;;;5012029;28;20459;-71
2022/09/11 04:38:56;;;;;;;2.00;1.80;;;16.60;98.00;;;;;;4995213;28;20455;-71
2022/09/11 04:41:24;;;;;;;1.67;1.40;;;16.60;98.00;;;;;;5012220;28;20502;-71
2022/09/11 04:43:56;;;;;;;1.90;1.70;;;16.50;98.00;;;;;;5012042;28;20473;-71
2022/09/11 04:46:24;;;;;;;1.63;1.40;;;16.40;98.00;;;;;;5012031;28;20455;-71
2022/09/11 04:48:52;;;;;;;2.30;1.50;;;16.40;98.00;;;;;;5012112;28;20491;-72
2022/09/11 04:51:22;;;;;;;1.63;1.47;;;16.40;98.00;;;;;;4994556;28;20962;-71
2022/09/11 04:53:50;;;;;;;4.17;1.70;;;16.40;98.00;;;;;;5012281;28;20477;-71
2022/09/11 04:56:21;;;;;;;1.60;1.50;;;16.30;98.00;;;;;;4994464;28;20455;-71
2022/09/11 04:58:53;;;;;;;1.97;1.43;;;16.30;98.00;;;;;;5012017;28;20514;-71
2022/09/11 05:01:24;;;;;;;2.60;1.70;;;16.30;98.00;;;;;;5011924;28;20545;-71
2022/09/11 05:03:51;;;;;;;1.53;1.33;;;16.40;98.00;;;;;;4994722;28;20487;-71
2022/09/11 05:06:18;;;;;;;1.63;1.40;;;16.50;98.00;;;;;;5011632;28;20965;-71
2022/09/11 05:08:48;;;;;;;2.77;2.00;;;16.50;98.00;;;;;;5011375;28;20471;-71
2022/09/11 05:11:17;;;;;;;1.90;1.53;;;16.50;98.00;;;;;;5010911;28;20529;-71
2022/09/11 05:13:45;;;;;;;2.13;1.60;;;16.40;98.00;;;;;;4994299;28;20472;-71
2022/09/11 05:16:14;;;;;;;1.50;1.40;;;16.50;98.00;;;;;;5011707;28;20451;-71
2022/09/11 05:18:44;;;;;;;2.03;1.70;;;16.60;98.00;;;;;;5011667;28;20466;-71
2022/09/11 05:21:13;;;;;;;1.70;1.33;;;16.60;98.00;;;;;;4994406;28;20463;-71
2022/09/11 05:23:40;;;;;;;2.20;1.80;;;16.50;98.00;;;;;;5011983;28;20824;-71
2022/09/11 05:26:17;;;;;;;2.50;1.97;;;16.50;98.00;;;;;;5011362;28;20459;-71
2022/09/11 05:28:44;;;;;;;3.17;2.07;;;16.50;98.00;;;;;;5011570;28;20868;-71
2022/09/11 05:31:14;;;;;;;2.57;1.70;;;16.40;98.00;;;;;;5011426;28;20872;-71
2022/09/11 05:33:43;;;;;;;2.50;1.70;;;16.50;98.00;;;;;;5011494;28;20950;-71
2022/09/11 05:36:12;;;;;;;1.90;1.70;;;16.60;98.00;;;;;;5011369;28;20828;-71
2022/09/11 05:38:39;;;;;;;1.80;1.60;;;16.70;98.00;;;;;;5011402;28;20466;-71
2022/09/11 05:41:09;;;;;;;2.57;1.87;;;16.70;98.00;;;;;;4993897;28;20478;-71
2022/09/11 05:43:37;;;;;;;4.27;2.40;;;16.70;98.00;;;;;;5009953;28;20463;-71
2022/09/11 05:46:05;;;;;;;3.70;2.13;;;16.60;98.00;;;;;;5011414;28;20546;-71
2022/09/11 05:48:33;;;;;;;2.97;2.17;;;16.60;98.00;;;;;;5011563;28;20455;-71
2022/09/11 05:51:05;;;;;;;2.70;2.10;;;16.50;98.00;;;;;;5011507;28;20483;-71
2022/09/11 05:53:33;;;;;;;2.73;2.20;;;16.60;98.00;;;;;;5011796;28;20538;-71
2022/09/11 05:56:07;;;;;;;3.40;2.23;;;16.60;98.00;;;;;;4977776;28;20466;-71
2022/09/11 05:58:34;;;;;;;7.80;2.97;;;16.60;98.00;;;;;;5011383;28;20487;-71
2022/09/11 06:01:04;;;;;;;2.27;1.77;;;16.60;98.00;;;;;;5011086;28;20836;-71
2022/09/11 06:03:32;;;;;;;2.97;2.20;;;16.70;98.00;;;;;;5011217;28;20467;-71
2022/09/11 06:06:01;;;;;;;5.43;2.03;;;16.70;98.00;;;;;;4993494;28;20465;-71
2022/09/11 06:08:28;;;;;;;4.10;1.90;;;16.80;98.00;;;;;;5010869;28;20559;-71
2022/09/11 06:10:56;;;;;;;4.20;2.47;;;16.70;98.00;;;;;;5010947;28;20483;-71
2022/09/11 06:13:24;;;;;;;3.10;1.77;;;16.70;98.00;;;;;;4993791;28;20966;-71
2022/09/11 06:15:52;;;;;;;1.80;1.73;;;16.70;98.00;;;;;;5011036;28;20460;-71
2022/09/11 06:18:19;;;;;;;3.50;2.43;;;16.70;98.00;;;;;;4977439;28;20463;-71
2022/09/11 06:20:56;;;;;;;3.57;2.30;;;16.80;98.00;;;;;;5011454;28;20459;-71
2022/09/11 06:23:25;;;;;;;2.80;2.00;;;16.80;98.00;;;;;;5014963;28;20884;-71
2022/09/11 06:25:54;;;;;;;2.63;2.00;;;16.70;98.00;;;;;;5014619;28;20498;-71
2022/09/11 06:28:22;;;;;;;3.70;2.40;;;16.70;98.00;;;;;;5014508;28;20482;-71
2022/09/11 06:30:50;;;;;;;2.40;1.90;;;16.60;98.00;;;;;;5014558;28;20522;-74
2022/09/11 06:33:19;;;;;;;2.20;1.97;;;16.70;98.00;;;;;;5014541;28;20462;-74
2022/09/11 06:35:57;;;;;;;2.67;2.03;;;16.70;98.00;;;;;;5014161;28;21032;-75
2022/09/11 06:38:26;;;;;;;4.50;2.53;;;16.80;98.00;;;;;;5014960;28;20890;-74
2022/09/11 06:40:55;;;;;;;2.50;1.90;;;16.90;98.00;;;;;;5014763;28;20542;-74
2022/09/11 06:43:22;;;;;;;2.43;1.90;;;17.00;98.00;;;;;;5014076;28;20455;-76
2022/09/11 06:45:49;;;;;;;5.37;2.87;;;17.00;98.00;;;;;;5014512;28;20459;-76
2022/09/11 06:48:17;;;;;;;2.83;2.13;;;17.00;98.00;;;;;;5014507;28;20887;-76
2022/09/11 06:50:45;;;;;;;2.47;1.80;;;17.00;98.00;;;;;;5014440;28;20488;-76
2022/09/11 06:53:14;;;;;;;3.90;2.37;;;17.10;98.00;;;;;;5014097;28;20494;-72
2022/09/11 06:55:42;;;;;;;5.27;2.73;;;17.20;98.00;;;;;;5014265;28;20543;-73
2022/09/11 06:58:09;;;;;;;3.30;2.23;;;17.10;98.00;;;;;;5013833;28;20841;-74
2022/09/11 07:00:37;;;;;;;4.00;2.90;;;17.10;98.00;;;;;;5013999;28;20467;-75
2022/09/11 07:03:04;;;;;;;2.97;1.90;;;16.90;98.00;;;;;;5013713;28;20458;-72
2022/09/11 07:05:32;;;;;;;3.77;2.73;;;16.80;98.00;;;;;;5013764;28;20459;-71
2022/09/11 07:07:59;;;;;;;3.60;2.23;;;16.90;98.00;;;;;;5013774;28;20551;-71
2022/09/11 07:10:27;;;;;;;4.27;2.47;;;16.90;98.00;;;;;;5013608;28;20487;-73
2022/09/11 07:12:56;;;;;;;3.83;2.37;;;16.80;98.00;;;;;;5013935;28;20451;-73
2022/09/11 07:15:24;;;;;;;3.67;2.57;;;16.80;98.00;;;;;;5013909;28;20487;-74
2022/09/11 07:17:51;;;;;;;3.57;2.57;;;16.80;98.00;;;;;;5013742;28;20533;-73
2022/09/11 07:20:19;;;;;;;3.77;2.50;;;16.70;98.00;;;;;;5013539;28;20559;-73
2022/09/11 07:22:46;;;;;;;3.67;2.40;;;16.70;98.00;;;;;;5013577;28;20954;-72
2022/09/11 07:25:14;;;;;;;7.43;2.83;;;16.80;98.00;;;;;;5013586;28;20487;-74
2022/09/11 07:27:43;;;;;;;4.70;2.83;;;16.80;98.00;;;;;;5013399;28;20531;-72
2022/09/11 07:30:13;;;;;;;4.53;2.40;;;16.80;98.00;;;;;;5013124;28;20490;-74
2022/09/11 07:32:40;;;;;;;5.27;2.57;;;16.80;98.00;;;;;;5012612;28;20509;-71
2022/09/11 07:35:08;;;;;;;3.63;2.53;;;16.90;98.00;;;;;;5013557;28;20482;-72
2022/09/11 07:37:35;;;;;;;5.33;2.77;;;16.90;98.00;;;;;;5013368;28;20464;-72
2022/09/11 07:40:04;;;;;;;3.87;2.33;;;17.00;98.00;;;;;;5013270;28;20459;-72
2022/09/11 07:42:32;;;;;;;2.43;2.13;;;17.10;98.00;;;;;;5013279;28;20499;-74
2022/09/11 07:45:00;;;;;;;4.37;2.33;;;17.10;98.00;;;;;;5013268;28;20482;-73
2022/09/11 07:47:29;;;;;;;2.63;2.23;;;17.10;98.00;;;;;;5013333;28;20464;-71
2022/09/11 07:49:56;;;;;;;3.40;2.30;;;17.10;98.00;;;;;;5013239;28;20484;-75
2022/09/11 07:52:23;;;;;;;3.80;2.53;;;17.20;98.00;;;;;;5012950;28;20800;-74
2022/09/11 07:54:51;;;;;;;4.03;2.30;;;17.30;98.00;;;;;;5013177;28;20463;-76
2022/09/11 07:57:19;;;;;;;3.70;2.60;;;17.30;98.00;;;;;;5012830;28;20451;-71
2022/09/11 07:59:46;;;;;;;3.20;2.30;;;17.30;98.00;;;;;;5012884;28;20486;-72
2022/09/11 08:02:13;;;;;;;4.47;2.70;;;17.30;98.00;;;;;;5012885;28;20920;-73
2022/09/11 08:04:41;;;;;;;5.03;2.27;;;17.40;98.00;;;;;;5012873;28;20497;-74
2022/09/11 08:07:09;;;;;;;3.17;2.60;;;17.30;98.00;;;;;;5014036;28;20453;-75
2022/09/11 08:09:36;;;;;;;10.30;3.13;;;17.50;98.00;;;;;;5013152;28;20850;-75
2022/09/11 08:12:05;;;;;;;3.00;2.30;;;17.60;98.00;;;;;;5010767;28;20463;-72
2022/09/11 08:14:32;;;;;;;6.03;3.00;;;17.60;98.00;;;;;;5011204;28;20463;-74
2022/09/11 08:16:59;;;;;;;3.37;2.50;;;17.70;98.00;;;;;;5011931;28;20503;-76
2022/09/11 08:19:27;;;;;;;4.43;3.20;;;17.70;98.00;;;;;;5011316;28;20458;-76
2022/09/11 08:22:00;;;;;;;3.23;2.40;;;17.70;98.00;;;;;;5011306;28;21031;-73
2022/09/11 08:24:27;;;;;;;5.23;3.20;;;17.80;98.00;;;;;;4993381;28;20456;-73
2022/09/11 08:26:55;;;;;;;4.23;2.53;;;17.80;98.00;;;;;;5019468;28;20546;-72
2022/09/11 08:29:23;;;;;;;4.20;2.83;;;17.90;98.00;;;;;;5010022;28;20988;-75
2022/09/11 08:31:51;;;;;;;4.00;2.63;;;18.00;98.00;;;;;;5009720;28;20579;-72
2022/09/11 08:34:20;;;;;;;7.10;2.73;;;18.00;98.00;;;;;;5013610;28;20818;-72
2022/09/11 08:36:48;;;;;;;4.53;2.60;;;18.00;98.00;;;;;;5009851;28;20539;-75
2022/09/11 08:39:17;;;;;;;7.17;2.80;;;18.00;98.00;;;;;;5009479;28;20543;-72
2022/09/11 08:41:48;;;;;;;4.00;2.67;;;18.00;98.00;;;;;;5009695;28;20514;-73
2022/09/11 08:44:23;;;;;;;4.93;2.37;;;18.00;98.00;;;;;;5009648;28;20459;-75
2022/09/11 08:46:55;;;;;;;3.10;2.30;;;18.10;98.00;;;;;;5008242;28;20876;-77
2022/09/11 08:49:26;;;;;;;4.37;2.67;;;18.20;98.00;;;;;;5007087;28;20533;-77
2022/09/11 08:51:58;;;;;;;4.20;2.90;;;18.30;98.00;;;;;;5009117;28;20491;-72
2022/09/11 08:54:30;;;;;;;6.03;2.93;;;18.40;98.00;;;;;;5009806;28;20950;-75
2022/09/11 08:57:11;;;;;;;5.37;3.30;;;18.50;98.00;;;;;;5011905;28;20988;-72
2022/09/11 08:59:55;;;;;;;4.90;2.80;;;18.30;98.00;;;;;;5012212;28;20463;-71
2022/09/11 09:02:47;;;;;;;5.77;3.43;;;18.30;98.00;;;;;;5012382;28;20926;-71
2022/09/11 09:05:31;;;;;;;8.30;2.83;;;18.30;98.00;;;;;;5003674;28;20452;-72
2022/09/11 09:08:39;;;;;;;6.80;2.80;;;18.30;98.00;;;;;;4992097;28;20468;-72
2022/09/11 09:11:20;;;;;;;6.90;2.70;;;18.10;98.00;;;;;;4992663;28;20839;-71
2022/09/11 09:14:05;;;;;;;4.77;2.77;;;18.00;98.00;;;;;;4992833;28;20460;-73
2022/09/11 09:16:44;;;;;;;3.80;2.47;;;18.00;98.00;;;;;;4992402;28;20876;-72
2022/09/11 09:19:16;;;;;;;5.70;3.23;;;18.10;98.00;;;;;;4992756;28;20483;-72
2022/09/11 09:21:49;;;;;;;4.23;2.70;;;18.10;98.00;;;;;;4992660;28;20456;-72
2022/09/11 09:24:19;;;;;;;6.50;3.10;;;18.20;98.00;;;;;;4992784;28;20471;-72
2022/09/11 09:26:51;;;;;;;6.50;3.10;;;18.30;98.00;;;;;;4992700;28;20460;-76
2022/09/11 09:29:22;;;;;;;3.70;2.47;;;18.40;98.00;;;;;;4992767;28;20951;-75
2022/09/11 09:31:53;;;;;;;4.50;2.60;;;18.70;98.00;;;;;;4992703;28;20534;-75
2022/09/11 09:34:22;;;;;;;5.00;3.13;;;19.00;98.00;;;;;;4991973;28;20503;-75
2022/09/11 09:36:57;;;;;;;3.80;2.53;;;19.40;98.00;;;;;;4991702;28;20499;-74
2022/09/11 09:39:25;;;;;;;4.10;2.77;;;19.70;98.00;;;;;;4992028;28;20487;-72
2022/09/11 09:42:21;;;;;;;4.00;3.13;;;20.20;98.00;;;;;;4991739;28;20540;-72
2022/09/11 09:45:01;;;;;;;3.03;2.40;;;20.50;98.00;;;;;;4992162;28;20476;-73
2022/09/11 09:47:29;;;;;;;4.40;2.97;;;21.10;98.00;;;;;;4991891;28;20462;-69
2022/09/11 09:49:58;;;;;;;4.70;3.00;;;21.00;98.00;;;;;;4991799;28;20959;-68
2022/09/11 09:52:27;;;;;;;3.60;2.57;;;20.80;98.00;;;;;;4991745;28;20854;-68
2022/09/11 09:54:58;;;;;;;4.80;2.80;;;21.00;98.00;;;;;;4991483;28;20476;-68
2022/09/11 09:57:36;;;;;;;4.30;2.50;;;21.00;98.00;;;;;;4994836;28;20901;-70
2022/09/11 10:00:13;;;;;;;5.00;2.90;;;20.90;98.00;;;;;;4995643;28;20491;-68
2022/09/11 10:02:42;;;;;;;3.93;2.33;;;21.00;98.00;;;;;;4995382;28;20464;-69
2022/09/11 10:05:18;;;;;;;3.13;2.50;;;21.00;98.00;;;;;;4996502;28;20580;-78
2022/09/11 10:07:50;;;;;;;3.50;2.50;;;20.80;98.00;;;;;;4996217;28;20467;-77
2022/09/11 10:10:27;;;;;;;3.40;2.40;;;20.70;98.00;;;;;;4995300;28;20466;-78
2022/09/11 10:12:58;;;;;;;3.80;2.90;;;20.60;98.00;;;;;;4996088;28;20460;-76
2022/09/11 10:15:26;;;;;;;5.60;3.10;;;20.50;98.00;;;;;;4996540;28;20456;-77
2022/09/11 10:17:57;;;;;;;3.77;2.53;;;20.30;98.00;;;;;;4995790;28;20461;-75
2022/09/11 10:20:30;;;;;;;3.33;2.17;;;20.20;98.00;;;;;;4996097;28;20464;-79
2022/09/11 10:23:24;;;;;;;3.40;1.93;;;20.00;98.00;;;;;;4995388;28;20535;-77
2022/09/11 10:25:52;;;;;;;4.60;2.97;;;20.10;98.00;;;;;;4994942;28;20464;-78
2022/09/11 10:28:28;;;;;;;6.73;2.97;;;19.90;98.00;;;;;;4995032;28;20510;-77
2022/09/11 10:31:01;;;;;;;4.50;2.60;;;20.00;98.00;;;;;;4994967;28;21146;-76
2022/09/11 10:33:31;;;;;;;3.53;2.10;;;20.00;98.00;;;;;;4995020;28;20970;-77
2022/09/11 10:36:00;;;;;;;4.70;2.77;;;20.00;98.00;;;;;;4995144;28;20510;-75
2022/09/11 10:38:31;;;;;;;2.93;2.50;;;20.30;98.00;;;;;;4994973;28;20959;-77
2022/09/11 10:41:08;;;;;;;4.20;2.80;;;20.60;98.00;;;;;;4994963;28;20464;-78
2022/09/11 10:43:43;;;;;;;4.90;3.00;;;20.80;98.00;;;;;;4995011;28;20539;-78
2022/09/11 10:46:28;;;;;;;4.40;2.53;;;21.10;98.00;;;;;;4995024;28;20885;-80
2022/09/11 10:48:58;;;;;;;3.53;2.60;;;21.30;98.00;;;;;;4994963;28;20460;-79
2022/09/11 10:51:27;;;;;;;3.10;2.33;;;21.30;98.00;;;;;;4994731;28;20484;-80
2022/09/11 10:54:02;;;;;;;3.83;2.60;;;21.20;98.00;;;;;;4994846;28;20511;-80
2022/09/11 10:56:29;;;;;;;4.20;2.70;;;21.10;98.00;;;;;;4994590;28;20460;-77
2022/09/11 10:59:06;;;;;;;3.03;2.50;;;21.10;98.00;;;;;;4994554;28;20464;-78
2022/09/11 11:01:33;;;;;;;3.57;2.20;;;21.00;98.00;;;;;;4994660;28;20878;-77
2022/09/11 11:04:00;;;;;;;3.60;2.70;;;21.00;98.00;;;;;;4994671;28;20460;-75
2022/09/11 11:06:44;;;;;;;3.93;2.60;;;21.10;98.00;;;;;;4994710;28;20460;-77
2022/09/11 11:09:32;;;;;;;4.63;2.73;;;21.50;98.00;;;;;;4993344;28;20847;-77
2022/09/11 11:12:16;;;;;;;3.70;2.50;;;22.10;98.00;;;;;;4994520;28;20851;-78
2022/09/11 11:15:12;;;;;;;3.93;2.60;;;22.50;98.00;;;;;;4994334;28;20522;-78
2022/09/11 11:17:48;;;;;;;3.63;2.40;;;22.80;98.00;;;;;;4994033;28;20973;-78
2022/09/11 11:20:32;;;;;;;3.47;2.70;;;23.20;98.00;;;;;;5008662;28;20502;-77
2022/09/11 11:23:25;;;;;;;2.77;2.30;;;23.40;98.00;;;;;;4994165;28;20464;-80
2022/09/11 11:26:04;;;;;;;4.40;2.63;;;23.90;98.00;;;;;;4994040;28;20527;-78
2022/09/11 11:28:59;;;;;;;4.03;2.73;;;24.40;98.00;;;;;;4994058;28;20460;-79
2022/09/11 11:31:41;;;;;;;4.00;2.70;;;25.10;98.00;;;;;;4994353;28;20484;-79
2022/09/11 11:34:25;;;;;;;2.53;2.20;;;25.00;95.70;;;;;;4994049;28;20461;-77
2022/09/11 11:36:58;;;;;;;4.20;2.53;;;23.90;94.60;;;;;;4994258;28;20499;-79
2022/09/11 11:39:30;;;;;;;2.90;2.23;;;23.20;98.00;;;;;;4994156;28;20951;-80
2022/09/11 11:42:08;;;;;;;7.00;2.50;;;22.90;98.00;;;;;;4993908;28;20463;-74
2022/09/11 11:44:42;;;;;;;3.20;2.27;;;22.80;98.00;;;;;;4993964;28;21021;-78
2022/09/11 11:47:13;;;;;;;3.70;2.87;;;22.90;98.00;;;;;;4993947;28;20830;-80
2022/09/11 11:49:54;;;;;;;4.37;2.80;;;23.40;98.00;;;;;;4993931;28;20460;-80
2022/09/11 11:52:35;;;;;;;3.40;2.60;;;23.90;98.00;;;;;;4993331;28;20492;-79
2022/09/11 11:55:15;;;;;;;4.70;2.70;;;24.50;97.80;;;;;;5008304;28;20468;-76
2022/09/11 11:57:48;;;;;;;5.87;3.10;;;24.90;96.80;;;;;;4993577;28;20463;-77
2022/09/11 12:00:18;;;;;;;4.13;2.70;;;25.10;94.30;;;;;;4993737;28;20460;-77
2022/09/11 12:02:53;;;;;;;4.70;2.87;;;25.60;94.40;;;;;;4993314;28;20464;-76
2022/09/11 12:05:24;;;;;;;3.20;2.37;;;25.80;90.90;;;;;;4993565;28;20460;-77
2022/09/11 12:07:51;;;;;;;3.90;2.60;;;25.50;92.50;;;;;;4993858;28;20543;-74
2022/09/11 12:10:22;;;;;;;4.03;2.40;;;25.30;90.50;;;;;;4994352;28;20464;-75
2022/09/11 12:12:53;;;;;;;3.50;2.67;;;25.50;93.30;;;;;;4995411;28;20534;-75
2022/09/11 12:15:23;;;;;;;3.60;2.60;;;25.70;89.70;;;;;;4995348;28;20464;-75
2022/09/11 12:18:01;;;;;;;4.20;2.87;;;26.10;89.90;;;;;;4995934;28;20471;-74
2022/09/11 12:20:34;;;;;;;5.83;2.80;;;26.50;88.80;;;;;;4994607;28;20460;-77
2022/09/11 12:23:03;;;;;;;3.83;2.30;;;27.00;88.00;;;;;;4994514;28;20825;-75
2022/09/11 12:26:16;;;;;;;4.47;2.83;;;27.10;86.70;;;;;;4994870;28;21005;-75
2022/09/11 12:28:46;;;;;;;3.57;2.53;;;27.40;86.30;;;;;;4994504;28;20440;-75
2022/09/11 12:31:14;;;;;;;3.83;2.57;;;27.70;87.80;;;;;;4993277;28;20495;-73
2022/09/11 12:33:56;;;;;;;5.57;2.70;;;27.90;86.00;;;;;;4993669;28;20448;-73
2022/09/11 12:36:34;;;;;;;3.80;2.50;;;27.70;85.10;;;;;;4993315;28;20515;-72
2022/09/11 12:39:05;;;;;;;4.10;2.63;;;27.80;85.60;;;;;;4993374;28;20453;-72
2022/09/11 12:41:34;;;;;;;4.03;2.93;;;27.90;85.90;;;;;;4993637;28;20819;-72
2022/09/11 12:44:02;;;;;;;4.07;2.63;;;27.60;86.10;;;;;;4993301;28;20850;-72
2022/09/11 12:47:15;;;;;;;3.97;2.33;;;27.50;86.20;;;;;;4993525;28;20461;-78
2022/09/11 12:49:54;;;;;;;3.97;2.80;;;27.40;87.40;;;;;;4993450;28;20896;-76
2022/09/11 12:52:32;;;;;;;4.20;3.00;;;27.70;85.00;;;;;;5002354;28;20570;-77
2022/09/11 12:55:04;;;;;;;3.63;2.43;;;28.00;83.60;;;;;;5012550;28;20471;-76
2022/09/11 12:57:34;;;;;;;2.80;2.00;;;28.00;82.50;;;;;;5011911;28;20455;-76
2022/09/11 13:00:05;;;;;;;4.10;2.37;;;27.90;81.50;;;;;;5012369;28;20547;-76
2022/09/11 13:02:36;;;;;;;4.70;2.40;;;27.90;82.30;;;;;;5012282;28;20515;-76
2022/09/11 13:05:06;;;;;;;4.20;2.90;;;27.20;82.60;;;;;;5012246;28;20509;-76
2022/09/11 13:07:41;;;;;;;3.33;2.60;;;27.20;85.30;;;;;;5012551;28;20787;-77
2022/09/11 13:10:22;;;;;;;3.47;2.37;;;27.30;85.80;;;;;;5012420;28;20458;-76
2022/09/11 13:12:54;;;;;;;3.80;2.50;;;27.50;84.20;;;;;;5012205;28;21005;-76